メインページ
METAR-TAF:

METAR-TAF

空港 :

セロ・モレノ国際空港

アントファガスタ, チリ

緯度: 23-26S, 経度: 070-26W, 海抜: 135m

現時点の気象観測

当レポートは25分前の21:00(UTC)に作成
南/南西の風 10kt
気温 14°C
湿度 67%
気圧 1017 hPa
視程10km以上
高度1800ftの雲はほとんどない

METAR: SCFA 162100Z 20010KT 9999 FEW018 14/08 Q1017 NOSIG

時間: 18:25 (21:25 UTC)

予報

当レポートは3時間35分前の17:50(UTC)に作成
予報は16日の 18時(UTC)から 17日の 18時(UTC)まで有効
南/南西の風 10kt
視程10km以上
高度2600ftの雲はほとんどない
16日の 22時(UTC)から 17日の 00時(UTC)まで徐々に
高度2200ftの千切れ雲あり
17日の 02時(UTC)から 17日の 04時(UTC)まで徐々に
の風 4kt
高度1500ftの曇り
17日の 15時(UTC)から 17日の 17時(UTC)まで徐々に
南/南西の風 15kt
高度2300ftの雲は散在している

TAF: SCFA 161750Z 1618/1718 21010KT 9999 FEW026 TX16/1618Z TN13/ 1706Z BECMG 1622/1700 BKN022 BECMG 1702/1704 17004KT OVC015 BECMG 1715/1717 21015KT SCT023

4,000以上の空港の気象観測と天気予報(METAR報とTAF報)

利用可能な観測所は地図上に黄色い丸と赤い丸で示す。

丸の上にカーソルを重ねると観測所名を参照できる。

次にクリックすると気象観測と天気予報を参照できる。

マップの切り替え:黒色「×」印の緑ボタンをクリックして拡大、「-」印の緑ボタンをクリックして縮小、緑色の三角印をクリックして隣りの地図に切り替え


METAR-TAF: